sensor_id;sensor_type;location;lat;lon;timestamp;P1;durP1;ratioP1;P2;durP2;ratioP2
36923;SDS011;22841;50.252;18.688;2023-02-12T00:01:39;47.33;;;22.85;;
36923;SDS011;22841;50.252;18.688;2023-02-12T00:04:05;45.53;;;21.33;;
36923;SDS011;22841;50.252;18.688;2023-02-12T00:06:31;42.50;;;21.75;;
36923;SDS011;22841;50.252;18.688;2023-02-12T00:08:58;43.67;;;21.20;;
36923;SDS011;22841;50.252;18.688;2023-02-12T00:11:25;41.85;;;20.83;;
36923;SDS011;22841;50.252;18.688;2023-02-12T00:13:53;49.90;;;23.50;;
36923;SDS011;22841;50.252;18.688;2023-02-12T00:16:20;45.50;;;23.02;;
36923;SDS011;22841;50.252;18.688;2023-02-12T00:18:50;45.75;;;23.30;;
36923;SDS011;22841;50.252;18.688;2023-02-12T00:21:17;53.13;;;23.25;;
36923;SDS011;22841;50.252;18.688;2023-02-12T00:23:43;49.47;;;24.75;;
36923;SDS011;22841;50.252;18.688;2023-02-12T00:26:10;62.35;;;26.45;;
36923;SDS011;22841;50.252;18.688;2023-02-12T00:28:38;51.50;;;23.77;;
36923;SDS011;22841;50.252;18.688;2023-02-12T00:31:08;51.63;;;23.10;;
36923;SDS011;22841;50.252;18.688;2023-02-12T00:33:39;51.72;;;21.70;;
36923;SDS011;22841;50.252;18.688;2023-02-12T00:36:05;46.03;;;22.50;;
36923;SDS011;22841;50.252;18.688;2023-02-12T00:38:32;54.50;;;24.02;;
36923;SDS011;22841;50.252;18.688;2023-02-12T00:40:59;58.35;;;24.95;;
36923;SDS011;22841;50.252;18.688;2023-02-12T00:43:25;68.05;;;28.45;;
36923;SDS011;22841;50.252;18.688;2023-02-12T00:45:51;61.83;;;26.48;;
36923;SDS011;22841;50.252;18.688;2023-02-12T00:48:17;59.05;;;27.58;;
36923;SDS011;22841;50.252;18.688;2023-02-12T00:50:44;59.67;;;26.35;;
36923;SDS011;22841;50.252;18.688;2023-02-12T00:53:10;52.85;;;23.95;;
36923;SDS011;22841;50.252;18.688;2023-02-12T00:55:37;69.65;;;27.30;;
36923;SDS011;22841;50.252;18.688;2023-02-12T00:58:03;57.08;;;25.00;;
36923;SDS011;22841;50.252;18.688;2023-02-12T01:00:29;61.17;;;26.15;;
36923;SDS011;22841;50.252;18.688;2023-02-12T01:02:55;64.20;;;27.77;;
36923;SDS011;22841;50.252;18.688;2023-02-12T01:05:21;67.72;;;26.98;;
36923;SDS011;22841;50.252;18.688;2023-02-12T01:07:48;69.57;;;28.67;;
36923;SDS011;22841;50.252;18.688;2023-02-12T01:10:15;76.00;;;28.65;;
36923;SDS011;22841;50.252;18.688;2023-02-12T01:12:42;87.75;;;29.17;;
36923;SDS011;22841;50.252;18.688;2023-02-12T01:15:08;81.63;;;29.25;;
36923;SDS011;22841;50.252;18.688;2023-02-12T01:17:35;74.68;;;27.75;;
36923;SDS011;22841;50.252;18.688;2023-02-12T01:20:02;78.57;;;29.52;;
36923;SDS011;22841;50.252;18.688;2023-02-12T01:22:30;73.35;;;26.63;;
36923;SDS011;22841;50.252;18.688;2023-02-12T01:24:56;80.97;;;30.42;;
36923;SDS011;22841;50.252;18.688;2023-02-12T01:27:22;88.60;;;28.90;;
36923;SDS011;22841;50.252;18.688;2023-02-12T01:29:48;83.47;;;29.15;;
36923;SDS011;22841;50.252;18.688;2023-02-12T01:32:14;82.03;;;29.45;;
36923;SDS011;22841;50.252;18.688;2023-02-12T01:34:40;81.50;;;31.38;;
36923;SDS011;22841;50.252;18.688;2023-02-12T01:37:06;90.10;;;29.88;;
36923;SDS011;22841;50.252;18.688;2023-02-12T01:39:33;74.43;;;29.92;;
36923;SDS011;22841;50.252;18.688;2023-02-12T01:42:00;81.70;;;30.67;;
36923;SDS011;22841;50.252;18.688;2023-02-12T01:44:28;87.60;;;31.85;;
36923;SDS011;22841;50.252;18.688;2023-02-12T01:46:56;83.97;;;34.50;;
36923;SDS011;22841;50.252;18.688;2023-02-12T01:49:32;80.13;;;30.63;;
36923;SDS011;22841;50.252;18.688;2023-02-12T01:52:09;73.20;;;29.75;;
36923;SDS011;22841;50.252;18.688;2023-02-12T01:54:42;86.47;;;29.98;;
36923;SDS011;22841;50.252;18.688;2023-02-12T01:57:08;80.85;;;30.73;;
36923;SDS011;22841;50.252;18.688;2023-02-12T01:59:38;98.05;;;32.88;;
36923;SDS011;22841;50.252;18.688;2023-02-12T02:02:06;98.35;;;35.13;;
36923;SDS011;22841;50.252;18.688;2023-02-12T02:04:35;99.57;;;33.78;;
36923;SDS011;22841;50.252;18.688;2023-02-12T02:07:04;77.78;;;30.05;;
36923;SDS011;22841;50.252;18.688;2023-02-12T02:09:34;89.88;;;33.72;;
36923;SDS011;22841;50.252;18.688;2023-02-12T02:12:01;92.63;;;31.95;;
36923;SDS011;22841;50.252;18.688;2023-02-12T02:14:47;86.28;;;31.95;;
36923;SDS011;22841;50.252;18.688;2023-02-12T02:17:19;114.90;;;34.20;;
36923;SDS011;22841;50.252;18.688;2023-02-12T02:38:37;98.38;;;32.70;;
36923;SDS011;22841;50.252;18.688;2023-02-12T02:43:48;93.00;;;31.52;;
36923;SDS011;22841;50.252;18.688;2023-02-12T02:46:22;91.57;;;32.00;;
36923;SDS011;22841;50.252;18.688;2023-02-12T02:49:00;90.32;;;31.48;;
36923;SDS011;22841;50.252;18.688;2023-02-12T02:51:39;91.05;;;31.73;;
36923;SDS011;22841;50.252;18.688;2023-02-12T02:56:59;86.85;;;32.05;;
36923;SDS011;22841;50.252;18.688;2023-02-12T02:59:32;102.43;;;34.40;;
36923;SDS011;22841;50.252;18.688;2023-02-12T03:02:08;100.40;;;32.50;;
36923;SDS011;22841;50.252;18.688;2023-02-12T03:04:42;89.97;;;31.85;;
36923;SDS011;22841;50.252;18.688;2023-02-12T03:07:15;94.90;;;31.17;;
36923;SDS011;22841;50.252;18.688;2023-02-12T03:10:08;91.40;;;31.00;;
36923;SDS011;22841;50.252;18.688;2023-02-12T03:15:45;96.55;;;31.80;;
36923;SDS011;22841;50.252;18.688;2023-02-12T03:18:23;95.75;;;32.60;;
36923;SDS011;22841;50.252;18.688;2023-02-12T03:20:54;116.97;;;34.00;;
36923;SDS011;22841;50.252;18.688;2023-02-12T03:23:26;98.85;;;33.83;;
36923;SDS011;22841;50.252;18.688;2023-02-12T03:25:58;111.93;;;36.65;;
36923;SDS011;22841;50.252;18.688;2023-02-12T03:28:31;121.20;;;35.60;;
36923;SDS011;22841;50.252;18.688;2023-02-12T03:31:07;107.47;;;35.55;;
36923;SDS011;22841;50.252;18.688;2023-02-12T03:36:50;109.28;;;34.15;;
36923;SDS011;22841;50.252;18.688;2023-02-12T03:39:32;84.72;;;30.42;;
36923;SDS011;22841;50.252;18.688;2023-02-12T03:42:14;95.15;;;31.25;;
36923;SDS011;22841;50.252;18.688;2023-02-12T03:52:37;116.97;;;36.00;;
36923;SDS011;22841;50.252;18.688;2023-02-12T03:55:03;121.10;;;36.63;;
36923;SDS011;22841;50.252;18.688;2023-02-12T03:57:31;147.65;;;37.38;;
36923;SDS011;22841;50.252;18.688;2023-02-12T04:02:31;117.30;;;35.05;;
36923;SDS011;22841;50.252;18.688;2023-02-12T04:05:03;140.70;;;38.53;;
36923;SDS011;22841;50.252;18.688;2023-02-12T04:07:34;135.15;;;36.83;;
36923;SDS011;22841;50.252;18.688;2023-02-12T04:10:01;142.75;;;37.50;;
36923;SDS011;22841;50.252;18.688;2023-02-12T04:18:09;124.13;;;36.90;;
36923;SDS011;22841;50.252;18.688;2023-02-12T04:20:55;136.60;;;40.20;;
36923;SDS011;22841;50.252;18.688;2023-02-12T04:23:48;154.20;;;40.95;;
36923;SDS011;22841;50.252;18.688;2023-02-12T04:26:38;117.85;;;37.20;;
36923;SDS011;22841;50.252;18.688;2023-02-12T04:29:25;107.95;;;36.30;;
36923;SDS011;22841;50.252;18.688;2023-02-12T04:32:06;145.85;;;41.45;;
36923;SDS011;22841;50.252;18.688;2023-02-12T04:37:14;138.90;;;38.45;;
36923;SDS011;22841;50.252;18.688;2023-02-12T04:39:50;151.05;;;41.60;;
36923;SDS011;22841;50.252;18.688;2023-02-12T04:42:18;123.60;;;40.78;;
36923;SDS011;22841;50.252;18.688;2023-02-12T04:44:44;143.55;;;41.17;;
36923;SDS011;22841;50.252;18.688;2023-02-12T04:47:12;155.27;;;41.22;;
36923;SDS011;22841;50.252;18.688;2023-02-12T04:49:39;193.20;;;43.58;;
36923;SDS011;22841;50.252;18.688;2023-02-12T04:52:05;147.65;;;39.80;;
36923;SDS011;22841;50.252;18.688;2023-02-12T04:54:32;155.25;;;41.20;;
36923;SDS011;22841;50.252;18.688;2023-02-12T04:56:59;112.90;;;38.35;;
36923;SDS011;22841;50.252;18.688;2023-02-12T04:59:26;107.22;;;37.70;;
36923;SDS011;22841;50.252;18.688;2023-02-12T05:01:52;136.07;;;39.33;;
36923;SDS011;22841;50.252;18.688;2023-02-12T05:04:18;152.80;;;40.10;;
36923;SDS011;22841;50.252;18.688;2023-02-12T05:06:44;134.60;;;40.42;;
36923;SDS011;22841;50.252;18.688;2023-02-12T05:09:12;126.63;;;37.88;;
36923;SDS011;22841;50.252;18.688;2023-02-12T05:11:43;123.05;;;36.45;;
36923;SDS011;22841;50.252;18.688;2023-02-12T05:14:09;141.52;;;38.78;;
36923;SDS011;22841;50.252;18.688;2023-02-12T05:16:35;145.77;;;39.78;;
36923;SDS011;22841;50.252;18.688;2023-02-12T05:19:01;109.75;;;38.75;;
36923;SDS011;22841;50.252;18.688;2023-02-12T05:21:27;126.60;;;37.75;;
36923;SDS011;22841;50.252;18.688;2023-02-12T05:23:53;116.38;;;36.88;;
36923;SDS011;22841;50.252;18.688;2023-02-12T05:26:20;108.93;;;36.88;;
36923;SDS011;22841;50.252;18.688;2023-02-12T05:28:47;113.75;;;35.80;;
36923;SDS011;22841;50.252;18.688;2023-02-12T05:31:15;89.68;;;35.20;;
36923;SDS011;22841;50.252;18.688;2023-02-12T05:33:44;93.00;;;34.30;;
36923;SDS011;22841;50.252;18.688;2023-02-12T05:36:13;91.13;;;31.00;;
36923;SDS011;22841;50.252;18.688;2023-02-12T05:38:40;93.95;;;33.47;;
36923;SDS011;22841;50.252;18.688;2023-02-12T05:41:11;116.25;;;33.85;;
36923;SDS011;22841;50.252;18.688;2023-02-12T05:43:39;107.35;;;32.67;;
36923;SDS011;22841;50.252;18.688;2023-02-12T05:46:05;123.82;;;35.75;;
36923;SDS011;22841;50.252;18.688;2023-02-12T05:48:33;102.78;;;35.00;;
36923;SDS011;22841;50.252;18.688;2023-02-12T05:51:00;98.85;;;32.85;;
36923;SDS011;22841;50.252;18.688;2023-02-12T05:53:28;108.45;;;33.10;;
36923;SDS011;22841;50.252;18.688;2023-02-12T05:55:54;108.22;;;34.80;;
36923;SDS011;22841;50.252;18.688;2023-02-12T05:58:40;108.57;;;35.78;;
36923;SDS011;22841;50.252;18.688;2023-02-12T06:01:16;111.95;;;38.00;;
36923;SDS011;22841;50.252;18.688;2023-02-12T06:03:43;122.05;;;39.13;;
36923;SDS011;22841;50.252;18.688;2023-02-12T06:06:10;129.27;;;37.08;;
36923;SDS011;22841;50.252;18.688;2023-02-12T06:08:36;123.00;;;38.97;;
36923;SDS011;22841;50.252;18.688;2023-02-12T06:11:04;107.70;;;33.13;;
36923;SDS011;22841;50.252;18.688;2023-02-12T06:13:32;107.72;;;35.10;;
36923;SDS011;22841;50.252;18.688;2023-02-12T06:15:59;111.30;;;36.55;;
36923;SDS011;22841;50.252;18.688;2023-02-12T06:18:25;90.70;;;37.13;;
36923;SDS011;22841;50.252;18.688;2023-02-12T06:20:52;114.88;;;41.05;;
36923;SDS011;22841;50.252;18.688;2023-02-12T06:23:21;113.15;;;40.70;;
36923;SDS011;22841;50.252;18.688;2023-02-12T06:25:48;84.22;;;32.45;;
36923;SDS011;22841;50.252;18.688;2023-02-12T06:28:16;87.80;;;31.42;;
36923;SDS011;22841;50.252;18.688;2023-02-12T06:30:42;119.07;;;36.15;;
36923;SDS011;22841;50.252;18.688;2023-02-12T06:33:08;95.65;;;33.58;;
36923;SDS011;22841;50.252;18.688;2023-02-12T06:35:34;75.18;;;27.67;;
36923;SDS011;22841;50.252;18.688;2023-02-12T06:38:01;69.97;;;26.80;;
36923;SDS011;22841;50.252;18.688;2023-02-12T06:40:27;91.07;;;25.02;;
36923;SDS011;22841;50.252;18.688;2023-02-12T06:42:53;73.45;;;24.13;;
36923;SDS011;22841;50.252;18.688;2023-02-12T06:45:19;72.07;;;24.67;;
36923;SDS011;22841;50.252;18.688;2023-02-12T06:47:45;76.03;;;25.15;;
36923;SDS011;22841;50.252;18.688;2023-02-12T06:50:11;62.60;;;24.10;;
36923;SDS011;22841;50.252;18.688;2023-02-12T06:52:37;68.72;;;24.38;;
36923;SDS011;22841;50.252;18.688;2023-02-12T06:55:03;61.05;;;24.58;;
36923;SDS011;22841;50.252;18.688;2023-02-12T06:57:30;57.78;;;23.80;;
36923;SDS011;22841;50.252;18.688;2023-02-12T06:59:56;59.45;;;23.15;;
36923;SDS011;22841;50.252;18.688;2023-02-12T07:02:22;65.13;;;21.83;;
36923;SDS011;22841;50.252;18.688;2023-02-12T07:04:48;69.88;;;23.45;;
36923;SDS011;22841;50.252;18.688;2023-02-12T07:07:14;59.30;;;21.98;;
36923;SDS011;22841;50.252;18.688;2023-02-12T07:09:40;57.15;;;22.05;;
36923;SDS011;22841;50.252;18.688;2023-02-12T07:12:06;62.38;;;23.88;;
36923;SDS011;22841;50.252;18.688;2023-02-12T07:14:32;60.72;;;25.70;;
36923;SDS011;22841;50.252;18.688;2023-02-12T07:16:58;56.63;;;23.27;;
36923;SDS011;22841;50.252;18.688;2023-02-12T07:19:29;65.07;;;23.90;;
36923;SDS011;22841;50.252;18.688;2023-02-12T07:21:55;64.07;;;26.02;;
36923;SDS011;22841;50.252;18.688;2023-02-12T07:24:21;73.38;;;26.05;;
36923;SDS011;22841;50.252;18.688;2023-02-12T07:26:48;69.07;;;26.55;;
36923;SDS011;22841;50.252;18.688;2023-02-12T07:29:14;51.90;;;23.08;;
36923;SDS011;22841;50.252;18.688;2023-02-12T07:31:40;53.67;;;21.35;;
36923;SDS011;22841;50.252;18.688;2023-02-12T07:34:06;46.67;;;22.83;;
36923;SDS011;22841;50.252;18.688;2023-02-12T07:36:34;43.80;;;19.13;;
36923;SDS011;22841;50.252;18.688;2023-02-12T07:39:00;41.25;;;21.33;;
36923;SDS011;22841;50.252;18.688;2023-02-12T07:41:33;36.58;;;16.73;;
36923;SDS011;22841;50.252;18.688;2023-02-12T07:44:01;35.42;;;16.13;;
36923;SDS011;22841;50.252;18.688;2023-02-12T07:46:35;45.83;;;17.25;;
36923;SDS011;22841;50.252;18.688;2023-02-12T07:49:04;44.72;;;20.23;;
36923;SDS011;22841;50.252;18.688;2023-02-12T07:51:32;49.35;;;19.33;;
36923;SDS011;22841;50.252;18.688;2023-02-12T07:53:59;49.00;;;18.42;;
36923;SDS011;22841;50.252;18.688;2023-02-12T07:56:27;52.25;;;20.48;;
36923;SDS011;22841;50.252;18.688;2023-02-12T07:59:01;48.13;;;20.05;;
36923;SDS011;22841;50.252;18.688;2023-02-12T08:04:05;43.53;;;18.02;;
36923;SDS011;22841;50.252;18.688;2023-02-12T08:06:34;54.63;;;23.55;;
36923;SDS011;22841;50.252;18.688;2023-02-12T08:09:03;42.22;;;20.67;;
36923;SDS011;22841;50.252;18.688;2023-02-12T08:11:31;42.95;;;21.02;;
36923;SDS011;22841;50.252;18.688;2023-02-12T08:13:58;36.47;;;17.77;;
36923;SDS011;22841;50.252;18.688;2023-02-12T08:16:25;39.50;;;18.05;;
36923;SDS011;22841;50.252;18.688;2023-02-12T08:18:53;43.45;;;15.38;;
36923;SDS011;22841;50.252;18.688;2023-02-12T08:21:21;37.05;;;16.00;;
36923;SDS011;22841;50.252;18.688;2023-02-12T08:23:49;38.67;;;15.82;;
36923;SDS011;22841;50.252;18.688;2023-02-12T08:26:18;46.28;;;16.25;;
36923;SDS011;22841;50.252;18.688;2023-02-12T08:28:47;31.48;;;15.73;;
36923;SDS011;22841;50.252;18.688;2023-02-12T08:31:20;35.00;;;16.00;;
36923;SDS011;22841;50.252;18.688;2023-02-12T08:33:50;42.20;;;15.02;;
36923;SDS011;22841;50.252;18.688;2023-02-12T08:36:19;30.00;;;10.57;;
36923;SDS011;22841;50.252;18.688;2023-02-12T08:38:49;31.25;;;11.65;;
36923;SDS011;22841;50.252;18.688;2023-02-12T08:41:21;21.25;;;8.57;;
36923;SDS011;22841;50.252;18.688;2023-02-12T08:43:49;42.05;;;17.40;;
36923;SDS011;22841;50.252;18.688;2023-02-12T08:46:18;148.65;;;51.05;;
36923;SDS011;22841;50.252;18.688;2023-02-12T08:48:46;69.75;;;28.65;;
36923;SDS011;22841;50.252;18.688;2023-02-12T08:51:16;52.25;;;19.08;;
36923;SDS011;22841;50.252;18.688;2023-02-12T08:53:45;229.77;;;82.82;;
36923;SDS011;22841;50.252;18.688;2023-02-12T08:56:14;66.03;;;25.88;;
36923;SDS011;22841;50.252;18.688;2023-02-12T08:58:43;38.50;;;11.77;;
36923;SDS011;22841;50.252;18.688;2023-02-12T09:01:10;30.17;;;12.65;;
36923;SDS011;22841;50.252;18.688;2023-02-12T09:03:38;33.72;;;10.32;;
36923;SDS011;22841;50.252;18.688;2023-02-12T09:06:05;66.75;;;22.23;;
36923;SDS011;22841;50.252;18.688;2023-02-12T09:08:32;25.65;;;8.68;;
36923;SDS011;22841;50.252;18.688;2023-02-12T09:10:58;16.30;;;7.32;;
36923;SDS011;22841;50.252;18.688;2023-02-12T09:13:24;21.08;;;8.07;;
36923;SDS011;22841;50.252;18.688;2023-02-12T09:15:50;17.90;;;7.43;;
36923;SDS011;22841;50.252;18.688;2023-02-12T09:18:16;19.35;;;9.27;;
36923;SDS011;22841;50.252;18.688;2023-02-12T09:20:43;16.73;;;9.13;;
36923;SDS011;22841;50.252;18.688;2023-02-12T09:23:10;20.80;;;8.35;;
36923;SDS011;22841;50.252;18.688;2023-02-12T09:25:42;27.30;;;9.68;;
36923;SDS011;22841;50.252;18.688;2023-02-12T09:28:09;26.67;;;9.27;;
36923;SDS011;22841;50.252;18.688;2023-02-12T09:30:36;26.45;;;11.48;;
36923;SDS011;22841;50.252;18.688;2023-02-12T09:33:03;20.35;;;8.82;;
36923;SDS011;22841;50.252;18.688;2023-02-12T09:35:32;23.08;;;11.70;;
36923;SDS011;22841;50.252;18.688;2023-02-12T09:37:59;26.02;;;13.23;;
36923;SDS011;22841;50.252;18.688;2023-02-12T09:40:46;21.42;;;9.45;;
36923;SDS011;22841;50.252;18.688;2023-02-12T09:43:47;36.75;;;15.20;;
36923;SDS011;22841;50.252;18.688;2023-02-12T09:46:44;26.30;;;11.05;;
36923;SDS011;22841;50.252;18.688;2023-02-12T09:51:44;18.30;;;6.70;;
36923;SDS011;22841;50.252;18.688;2023-02-12T09:54:19;29.30;;;13.57;;
36923;SDS011;22841;50.252;18.688;2023-02-12T09:56:51;26.27;;;12.57;;
36923;SDS011;22841;50.252;18.688;2023-02-12T09:59:34;17.63;;;7.97;;
36923;SDS011;22841;50.252;18.688;2023-02-12T10:02:10;23.50;;;9.50;;
36923;SDS011;22841;50.252;18.688;2023-02-12T10:04:39;21.95;;;10.05;;
36923;SDS011;22841;50.252;18.688;2023-02-12T10:07:23;19.50;;;7.80;;
36923;SDS011;22841;50.252;18.688;2023-02-12T10:12:56;26.33;;;9.23;;
36923;SDS011;22841;50.252;18.688;2023-02-12T10:18:10;14.57;;;6.80;;
36923;SDS011;22841;50.252;18.688;2023-02-12T10:26:20;23.70;;;11.60;;
36923;SDS011;22841;50.252;18.688;2023-02-12T10:28:50;21.02;;;9.23;;
36923;SDS011;22841;50.252;18.688;2023-02-12T10:31:23;26.42;;;9.88;;
36923;SDS011;22841;50.252;18.688;2023-02-12T10:33:53;29.85;;;11.05;;
36923;SDS011;22841;50.252;18.688;2023-02-12T10:36:43;20.30;;;8.95;;
36923;SDS011;22841;50.252;18.688;2023-02-12T10:41:35;51.63;;;21.25;;
36923;SDS011;22841;50.252;18.688;2023-02-12T10:44:09;33.17;;;14.63;;
36923;SDS011;22841;50.252;18.688;2023-02-12T10:46:36;24.17;;;10.80;;
36923;SDS011;22841;50.252;18.688;2023-02-12T10:49:03;72.80;;;26.20;;
36923;SDS011;22841;50.252;18.688;2023-02-12T10:54:32;19.75;;;10.23;;
36923;SDS011;22841;50.252;18.688;2023-02-12T10:57:07;70.05;;;21.48;;
36923;SDS011;22841;50.252;18.688;2023-02-12T10:59:46;20.38;;;10.80;;
36923;SDS011;22841;50.252;18.688;2023-02-12T11:04:48;24.83;;;9.70;;
36923;SDS011;22841;50.252;18.688;2023-02-12T11:07:15;61.92;;;26.08;;
36923;SDS011;22841;50.252;18.688;2023-02-12T11:09:43;25.75;;;12.18;;
36923;SDS011;22841;50.252;18.688;2023-02-12T11:12:16;26.33;;;11.07;;
36923;SDS011;22841;50.252;18.688;2023-02-12T11:15:05;27.95;;;11.82;;
36923;SDS011;22841;50.252;18.688;2023-02-12T11:17:34;17.15;;;7.53;;
36923;SDS011;22841;50.252;18.688;2023-02-12T11:22:50;19.42;;;9.18;;
36923;SDS011;22841;50.252;18.688;2023-02-12T11:25:19;22.92;;;9.13;;
36923;SDS011;22841;50.252;18.688;2023-02-12T11:28:33;25.98;;;9.45;;
36923;SDS011;22841;50.252;18.688;2023-02-12T11:30:50;24.75;;;9.80;;
36923;SDS011;22841;50.252;18.688;2023-02-12T11:33:26;20.15;;;9.68;;
36923;SDS011;22841;50.252;18.688;2023-02-12T11:35:59;15.90;;;9.07;;
36923;SDS011;22841;50.252;18.688;2023-02-12T11:38:53;20.90;;;9.07;;
36923;SDS011;22841;50.252;18.688;2023-02-12T11:44:18;31.73;;;13.27;;
36923;SDS011;22841;50.252;18.688;2023-02-12T11:46:53;24.67;;;10.38;;
36923;SDS011;22841;50.252;18.688;2023-02-12T11:49:23;25.25;;;12.10;;
36923;SDS011;22841;50.252;18.688;2023-02-12T11:51:52;42.67;;;15.73;;
36923;SDS011;22841;50.252;18.688;2023-02-12T11:54:24;18.92;;;10.10;;
36923;SDS011;22841;50.252;18.688;2023-02-12T11:56:53;75.72;;;26.15;;
36923;SDS011;22841;50.252;18.688;2023-02-12T11:59:39;28.63;;;11.32;;
36923;SDS011;22841;50.252;18.688;2023-02-12T12:02:23;47.85;;;18.25;;
36923;SDS011;22841;50.252;18.688;2023-02-12T12:04:55;37.85;;;14.00;;
36923;SDS011;22841;50.252;18.688;2023-02-12T12:07:32;22.92;;;10.18;;
36923;SDS011;22841;50.252;18.688;2023-02-12T12:10:07;29.70;;;11.60;;
36923;SDS011;22841;50.252;18.688;2023-02-12T12:12:43;20.48;;;10.05;;
36923;SDS011;22841;50.252;18.688;2023-02-12T12:15:24;25.98;;;11.82;;
36923;SDS011;22841;50.252;18.688;2023-02-12T12:21:38;26.00;;;9.95;;
36923;SDS011;22841;50.252;18.688;2023-02-12T12:24:21;32.13;;;12.43;;
36923;SDS011;22841;50.252;18.688;2023-02-12T12:26:57;24.10;;;11.98;;
36923;SDS011;22841;50.252;18.688;2023-02-12T12:30:21;46.97;;;18.30;;
36923;SDS011;22841;50.252;18.688;2023-02-12T12:32:58;44.33;;;17.48;;
36923;SDS011;22841;50.252;18.688;2023-02-12T12:35:32;22.42;;;10.52;;
36923;SDS011;22841;50.252;18.688;2023-02-12T12:38:22;21.17;;;11.05;;
36923;SDS011;22841;50.252;18.688;2023-02-12T12:41:59;19.40;;;9.40;;
36923;SDS011;22841;50.252;18.688;2023-02-12T12:44:53;28.35;;;14.02;;
36923;SDS011;22841;50.252;18.688;2023-02-12T12:47:23;28.35;;;12.55;;
36923;SDS011;22841;50.252;18.688;2023-02-12T12:55:01;27.25;;;12.05;;
36923;SDS011;22841;50.252;18.688;2023-02-12T13:00:38;24.75;;;10.05;;
36923;SDS011;22841;50.252;18.688;2023-02-12T13:05:49;23.17;;;10.50;;
36923;SDS011;22841;50.252;18.688;2023-02-12T13:13:45;19.13;;;10.05;;
36923;SDS011;22841;50.252;18.688;2023-02-12T13:16:16;31.63;;;12.90;;
36923;SDS011;22841;50.252;18.688;2023-02-12T13:27:00;32.20;;;14.15;;
36923;SDS011;22841;50.252;18.688;2023-02-12T13:32:27;22.27;;;11.25;;
36923;SDS011;22841;50.252;18.688;2023-02-12T13:34:56;24.02;;;10.02;;
36923;SDS011;22841;50.252;18.688;2023-02-12T13:37:35;21.58;;;11.25;;
36923;SDS011;22841;50.252;18.688;2023-02-12T13:40:07;29.10;;;11.60;;
36923;SDS011;22841;50.252;18.688;2023-02-12T13:42:46;21.88;;;11.18;;
36923;SDS011;22841;50.252;18.688;2023-02-12T13:51:09;28.10;;;12.70;;
36923;SDS011;22841;50.252;18.688;2023-02-12T13:54:03;26.98;;;11.95;;
36923;SDS011;22841;50.252;18.688;2023-02-12T14:02:03;24.63;;;11.32;;
36923;SDS011;22841;50.252;18.688;2023-02-12T14:04:31;22.38;;;12.02;;
36923;SDS011;22841;50.252;18.688;2023-02-12T14:12:13;21.38;;;9.43;;
36923;SDS011;22841;50.252;18.688;2023-02-12T14:14:50;21.45;;;9.60;;
36923;SDS011;22841;50.252;18.688;2023-02-12T14:17:40;20.80;;;8.00;;
36923;SDS011;22841;50.252;18.688;2023-02-12T14:20:27;13.77;;;7.75;;
36923;SDS011;22841;50.252;18.688;2023-02-12T14:25:47;21.67;;;11.10;;
36923;SDS011;22841;50.252;18.688;2023-02-12T14:28:31;31.55;;;13.10;;
36923;SDS011;22841;50.252;18.688;2023-02-12T14:33:51;23.03;;;11.10;;
36923;SDS011;22841;50.252;18.688;2023-02-12T14:36:42;32.97;;;14.07;;
36923;SDS011;22841;50.252;18.688;2023-02-12T14:41:45;36.80;;;13.65;;
36923;SDS011;22841;50.252;18.688;2023-02-12T14:44:58;29.35;;;11.57;;
36923;SDS011;22841;50.252;18.688;2023-02-12T14:47:04;25.88;;;12.13;;
36923;SDS011;22841;50.252;18.688;2023-02-12T14:50:00;32.45;;;13.95;;
36923;SDS011;22841;50.252;18.688;2023-02-12T14:52:31;77.30;;;25.67;;
36923;SDS011;22841;50.252;18.688;2023-02-12T14:55:17;55.60;;;23.52;;
36923;SDS011;22841;50.252;18.688;2023-02-12T14:57:47;38.92;;;16.05;;
36923;SDS011;22841;50.252;18.688;2023-02-12T15:02:43;35.55;;;19.08;;
36923;SDS011;22841;50.252;18.688;2023-02-12T15:05:20;35.53;;;18.00;;
36923;SDS011;22841;50.252;18.688;2023-02-12T15:07:59;35.03;;;15.50;;
36923;SDS011;22841;50.252;18.688;2023-02-12T15:10:33;44.72;;;22.45;;
36923;SDS011;22841;50.252;18.688;2023-02-12T15:15:50;56.75;;;28.13;;
36923;SDS011;22841;50.252;18.688;2023-02-12T15:18:26;55.67;;;26.70;;
36923;SDS011;22841;50.252;18.688;2023-02-12T15:21:01;51.70;;;25.80;;
36923;SDS011;22841;50.252;18.688;2023-02-12T15:23:41;110.80;;;72.73;;
36923;SDS011;22841;50.252;18.688;2023-02-12T15:26:18;60.80;;;31.13;;
36923;SDS011;22841;50.252;18.688;2023-02-12T15:28:47;89.05;;;37.15;;
36923;SDS011;22841;50.252;18.688;2023-02-12T15:31:16;80.40;;;40.13;;
36923;SDS011;22841;50.252;18.688;2023-02-12T15:33:48;69.50;;;34.80;;
36923;SDS011;22841;50.252;18.688;2023-02-12T15:36:17;74.20;;;31.45;;
36923;SDS011;22841;50.252;18.688;2023-02-12T15:38:50;66.55;;;34.50;;
36923;SDS011;22841;50.252;18.688;2023-02-12T15:41:22;67.72;;;34.95;;
36923;SDS011;22841;50.252;18.688;2023-02-12T15:43:51;58.45;;;30.23;;
36923;SDS011;22841;50.252;18.688;2023-02-12T15:46:17;76.40;;;34.50;;
36923;SDS011;22841;50.252;18.688;2023-02-12T15:48:43;72.97;;;32.95;;
36923;SDS011;22841;50.252;18.688;2023-02-12T15:51:23;65.13;;;31.88;;
36923;SDS011;22841;50.252;18.688;2023-02-12T15:54:04;64.90;;;28.73;;
36923;SDS011;22841;50.252;18.688;2023-02-12T15:56:31;69.70;;;31.38;;
36923;SDS011;22841;50.252;18.688;2023-02-12T15:59:00;57.50;;;28.80;;
36923;SDS011;22841;50.252;18.688;2023-02-12T16:01:31;68.40;;;31.42;;
36923;SDS011;22841;50.252;18.688;2023-02-12T16:04:00;62.35;;;33.38;;
36923;SDS011;22841;50.252;18.688;2023-02-12T16:06:29;73.85;;;36.97;;
36923;SDS011;22841;50.252;18.688;2023-02-12T16:09:11;80.50;;;38.15;;
36923;SDS011;22841;50.252;18.688;2023-02-12T16:11:43;70.53;;;35.28;;
36923;SDS011;22841;50.252;18.688;2023-02-12T16:17:17;82.10;;;41.05;;
36923;SDS011;22841;50.252;18.688;2023-02-12T16:19:58;86.40;;;41.40;;
36923;SDS011;22841;50.252;18.688;2023-02-12T16:22:27;109.70;;;48.65;;
36923;SDS011;22841;50.252;18.688;2023-02-12T16:24:53;113.40;;;50.92;;
36923;SDS011;22841;50.252;18.688;2023-02-12T16:27:24;135.00;;;61.03;;
36923;SDS011;22841;50.252;18.688;2023-02-12T16:30:20;113.82;;;53.42;;
36923;SDS011;22841;50.252;18.688;2023-02-12T16:36:00;111.40;;;52.13;;
36923;SDS011;22841;50.252;18.688;2023-02-12T16:43:43;97.45;;;44.92;;
36923;SDS011;22841;50.252;18.688;2023-02-12T16:46:10;108.72;;;47.58;;
36923;SDS011;22841;50.252;18.688;2023-02-12T16:48:42;122.05;;;49.97;;
36923;SDS011;22841;50.252;18.688;2023-02-12T16:51:23;106.57;;;45.42;;
36923;SDS011;22841;50.252;18.688;2023-02-12T16:53:50;104.50;;;40.03;;
36923;SDS011;22841;50.252;18.688;2023-02-12T16:56:19;103.57;;;43.33;;
36923;SDS011;22841;50.252;18.688;2023-02-12T16:58:47;84.88;;;36.65;;
36923;SDS011;22841;50.252;18.688;2023-02-12T17:01:25;86.32;;;35.92;;
36923;SDS011;22841;50.252;18.688;2023-02-12T17:03:53;87.65;;;36.63;;
36923;SDS011;22841;50.252;18.688;2023-02-12T17:06:21;112.47;;;45.58;;